createdAt,value
2023-05-09T00:00:45.476Z,2.08
2023-05-09T00:03:13.290Z,1.13
2023-05-09T00:05:40.029Z,1.05
2023-05-09T00:08:06.777Z,1.20
2023-05-09T00:10:33.550Z,0.50
2023-05-09T00:13:00.023Z,1.52
2023-05-09T00:15:26.760Z,2.83
2023-05-09T00:17:53.387Z,0.70
2023-05-09T00:20:21.287Z,1.45
2023-05-09T00:22:47.733Z,1.13
2023-05-09T00:25:14.360Z,1.23
2023-05-09T00:27:40.954Z,1.50
2023-05-09T00:30:08.431Z,1.00
2023-05-09T00:32:35.202Z,1.48
2023-05-09T00:35:01.670Z,0.75
2023-05-09T00:37:31.008Z,1.27
2023-05-09T00:39:57.550Z,1.17
2023-05-09T00:42:24.042Z,0.85
2023-05-09T00:44:50.506Z,1.00
2023-05-09T00:47:17.078Z,0.55
2023-05-09T00:49:43.669Z,0.60
2023-05-09T00:52:10.158Z,0.70
2023-05-09T00:54:37.990Z,1.02
2023-05-09T00:57:04.553Z,1.55
2023-05-09T00:59:31.175Z,1.02
2023-05-09T01:01:57.646Z,1.05
2023-05-09T01:04:24.694Z,0.57
2023-05-09T01:06:57.916Z,1.25
2023-05-09T01:09:32.392Z,0.43
2023-05-09T01:12:10.793Z,1.67
2023-05-09T01:14:44.170Z,0.82
2023-05-09T01:17:15.913Z,1.02
2023-05-09T01:20:03.689Z,1.17
2023-05-09T01:22:33.487Z,0.35
2023-05-09T01:25:27.105Z,0.90
2023-05-09T01:28:07.514Z,0.55
2023-05-09T01:30:37.624Z,0.43
2023-05-09T01:33:07.880Z,0.45
2023-05-09T01:35:37.988Z,0.20
2023-05-09T01:38:11.668Z,0.52
2023-05-09T01:40:41.955Z,0.17
2023-05-09T01:43:11.075Z,0.60
2023-05-09T01:45:39.973Z,0.63
2023-05-09T01:48:08.120Z,0.50
2023-05-09T01:50:36.012Z,0.45
2023-05-09T01:53:05.826Z,0.47
2023-05-09T01:55:35.399Z,0.90
2023-05-09T01:58:03.796Z,0.65
2023-05-09T02:00:31.933Z,1.50
2023-05-09T02:02:59.883Z,0.82
2023-05-09T02:05:28.644Z,0.77
2023-05-09T02:07:56.438Z,1.00
2023-05-09T02:10:23.602Z,0.77
2023-05-09T02:12:50.093Z,0.90
2023-05-09T02:15:17.026Z,0.30
2023-05-09T02:17:43.538Z,0.35
2023-05-09T02:20:11.626Z,0.68
2023-05-09T02:22:40.230Z,0.40
2023-05-09T02:25:07.682Z,0.47
2023-05-09T02:27:34.945Z,0.75
2023-05-09T02:30:04.821Z,0.45
2023-05-09T02:32:33.837Z,0.95
2023-05-09T02:35:02.035Z,0.45
2023-05-09T02:37:30.263Z,0.30
2023-05-09T02:39:56.955Z,0.30
2023-05-09T02:42:25.814Z,0.25
2023-05-09T02:44:52.426Z,1.17
2023-05-09T02:47:19.016Z,0.45
2023-05-09T02:49:45.536Z,0.30
2023-05-09T02:52:12.273Z,1.02
2023-05-09T02:54:40.616Z,0.50
2023-05-09T02:57:07.152Z,0.73
2023-05-09T02:59:33.753Z,0.35
2023-05-09T03:02:00.233Z,0.57
2023-05-09T03:04:26.668Z,0.40
2023-05-09T03:06:53.215Z,0.10
2023-05-09T03:09:19.733Z,0.32
2023-05-09T03:11:47.594Z,0.30
2023-05-09T03:14:14.038Z,0.43
2023-05-09T03:16:40.555Z,0.28
2023-05-09T03:19:07.088Z,0.55
2023-05-09T03:21:33.513Z,0.10
2023-05-09T03:23:59.974Z,0.30
2023-05-09T03:26:26.538Z,0.40
2023-05-09T03:28:54.291Z,0.50
2023-05-09T03:31:20.834Z,0.20
2023-05-09T03:33:47.296Z,0.85
2023-05-09T03:36:14.392Z,0.10
2023-05-09T03:38:40.860Z,0.68
2023-05-09T03:41:07.317Z,1.02
2023-05-09T03:43:33.832Z,0.10
2023-05-09T03:46:01.595Z,0.30
2023-05-09T03:48:28.010Z,0.30
2023-05-09T03:50:54.480Z,0.43
2023-05-09T03:53:20.944Z,0.30
2023-05-09T03:55:47.401Z,0.50
2023-05-09T03:58:13.974Z,0.20
2023-05-09T04:00:41.545Z,0.10
2023-05-09T04:03:09.527Z,0.10
2023-05-09T04:05:36.098Z,0.20
2023-05-09T04:08:03.121Z,0.10
2023-05-09T04:10:30.675Z,0.30
2023-05-09T04:12:57.219Z,0.05
2023-05-09T04:15:23.821Z,0.35
2023-05-09T04:17:50.242Z,0.10
2023-05-09T04:20:18.037Z,0.13
2023-05-09T04:22:46.809Z,0.60
2023-05-09T04:25:13.677Z,0.30
2023-05-09T04:27:40.348Z,0.00
2023-05-09T04:30:08.218Z,0.15
2023-05-09T04:32:34.632Z,0.00
2023-05-09T04:35:01.097Z,0.10
2023-05-09T04:37:28.894Z,0.00
2023-05-09T04:39:55.348Z,0.10
2023-05-09T04:42:21.774Z,0.80
2023-05-09T04:44:48.252Z,1.85
2023-05-09T04:47:14.850Z,1.40
2023-05-09T04:49:41.359Z,2.58
2023-05-09T04:52:07.749Z,3.63
2023-05-09T04:54:35.538Z,4.05
2023-05-09T04:57:13.821Z,1.48
2023-05-09T04:59:44.207Z,0.68
2023-05-09T05:02:10.768Z,3.08
2023-05-09T05:04:37.246Z,1.42
2023-05-09T05:07:03.740Z,3.72
2023-05-09T05:09:30.196Z,7.82
2023-05-09T05:12:02.410Z,10.30
2023-05-09T05:14:30.202Z,2.78
2023-05-09T05:16:56.665Z,6.20
2023-05-09T05:19:23.267Z,2.30
2023-05-09T05:21:49.720Z,5.70
2023-05-09T05:24:16.164Z,6.25
2023-05-09T05:26:42.645Z,2.35
2023-05-09T05:29:10.498Z,6.32
2023-05-09T05:31:37.032Z,2.05
2023-05-09T05:34:03.740Z,3.45
2023-05-09T05:36:30.237Z,2.55
2023-05-09T05:38:56.697Z,1.55
2023-05-09T05:41:23.151Z,1.65
2023-05-09T05:43:50.114Z,0.35
2023-05-09T05:46:18.493Z,1.50
2023-05-09T05:48:45.090Z,0.63
2023-05-09T05:51:11.690Z,1.30
2023-05-09T05:53:38.116Z,2.00
2023-05-09T05:56:04.807Z,0.95
2023-05-09T05:58:31.287Z,0.55
2023-05-09T06:00:57.701Z,2.13
2023-05-09T06:03:25.609Z,1.00
2023-05-09T06:05:52.244Z,3.00
2023-05-09T06:08:18.676Z,2.17
2023-05-09T06:10:45.220Z,2.85
2023-05-09T06:13:11.764Z,0.73
2023-05-09T06:15:38.270Z,1.80
2023-05-09T06:18:04.917Z,3.47
2023-05-09T06:20:32.692Z,3.85
2023-05-09T06:22:59.580Z,2.13
2023-05-09T06:25:26.405Z,3.00
2023-05-09T06:27:52.881Z,2.40
2023-05-09T06:30:26.320Z,1.55
2023-05-09T06:32:53.673Z,1.23
2023-05-09T06:35:20.418Z,2.22
2023-05-09T06:37:48.975Z,3.75
2023-05-09T06:40:16.243Z,3.80
2023-05-09T06:42:42.675Z,2.90
2023-05-09T06:45:09.827Z,3.65
2023-05-09T06:47:36.455Z,2.03
2023-05-09T06:50:03.195Z,0.50
2023-05-09T06:52:29.920Z,1.50
2023-05-09T06:54:57.822Z,1.15
2023-05-09T06:57:24.309Z,3.67
2023-05-09T06:59:50.786Z,3.75
2023-05-09T07:02:17.294Z,0.98
2023-05-09T07:04:43.797Z,1.65
2023-05-09T07:07:10.294Z,3.55
2023-05-09T07:09:36.833Z,1.27
2023-05-09T07:12:05.159Z,2.38
2023-05-09T07:14:31.667Z,6.07
2023-05-09T07:17:09.999Z,5.15
2023-05-09T07:19:44.566Z,3.97
2023-05-09T07:22:11.062Z,6.05
2023-05-09T07:24:37.559Z,9.43
2023-05-09T07:27:05.437Z,7.28
2023-05-09T07:29:31.912Z,10.45
2023-05-09T07:31:58.476Z,11.10
2023-05-09T07:34:25.033Z,21.17
2023-05-09T07:36:51.664Z,8.45
2023-05-09T07:39:18.233Z,5.72
2023-05-09T07:41:44.762Z,7.28
2023-05-09T07:44:12.686Z,9.68
2023-05-09T07:46:39.149Z,12.48
2023-05-09T07:49:05.703Z,9.43
2023-05-09T07:51:32.174Z,15.05
2023-05-09T07:53:58.634Z,12.57
2023-05-09T07:56:25.154Z,12.93
2023-05-09T07:58:53.125Z,8.90
2023-05-09T08:01:22.797Z,11.15
2023-05-09T08:03:49.351Z,10.55
2023-05-09T08:06:16.066Z,6.03
2023-05-09T08:08:42.628Z,12.13
2023-05-09T08:11:09.107Z,5.93
2023-05-09T08:13:35.660Z,14.05
2023-05-09T08:16:02.274Z,5.60
2023-05-09T08:18:30.129Z,7.80
2023-05-09T08:20:56.641Z,11.30
2023-05-09T08:23:23.098Z,7.00
2023-05-09T08:25:53.067Z,10.82
2023-05-09T08:28:19.513Z,7.80
2023-05-09T08:30:46.070Z,8.50
2023-05-09T08:33:12.615Z,3.75
2023-05-09T08:35:40.433Z,5.05
2023-05-09T08:38:06.893Z,10.13
2023-05-09T08:40:36.075Z,7.75
2023-05-09T08:43:05.342Z,4.72
2023-05-09T08:45:34.970Z,5.32
2023-05-09T08:48:02.964Z,12.15
2023-05-09T08:50:29.576Z,7.93
2023-05-09T08:52:57.600Z,7.57
2023-05-09T08:55:24.838Z,14.77
2023-05-09T08:57:53.631Z,17.67
2023-05-09T09:00:21.252Z,18.23
2023-05-09T09:02:49.011Z,4.93
2023-05-09T09:05:28.656Z,11.35
2023-05-09T09:08:03.692Z,7.22
2023-05-09T09:10:32.056Z,8.00
2023-05-09T09:12:59.492Z,14.73
2023-05-09T09:15:29.719Z,9.35
2023-05-09T09:18:05.915Z,5.28
2023-05-09T09:20:34.395Z,7.88
2023-05-09T09:23:04.150Z,9.23
2023-05-09T09:25:30.870Z,6.53
2023-05-09T09:27:57.433Z,11.88
2023-05-09T09:30:24.635Z,7.72
2023-05-09T09:32:51.298Z,17.08
2023-05-09T09:35:17.855Z,26.08
2023-05-09T09:37:44.596Z,17.63
2023-05-09T09:40:13.302Z,14.93
2023-05-09T09:42:42.361Z,18.83
2023-05-09T09:45:10.338Z,11.20
2023-05-09T09:47:37.171Z,12.02
2023-05-09T09:50:11.295Z,17.42
2023-05-09T09:52:42.097Z,11.23
2023-05-09T09:55:09.531Z,8.90
2023-05-09T09:57:38.744Z,12.38
2023-05-09T10:00:06.236Z,15.57
2023-05-09T10:02:32.752Z,11.05
2023-05-09T10:05:07.205Z,13.40
2023-05-09T10:07:34.115Z,6.90
2023-05-09T10:10:00.596Z,12.82
2023-05-09T10:12:27.259Z,21.95
2023-05-09T10:14:55.206Z,13.55
2023-05-09T10:17:22.354Z,8.30
2023-05-09T10:19:50.884Z,8.98
2023-05-09T10:22:18.517Z,4.43
2023-05-09T10:24:50.976Z,7.97
2023-05-09T10:27:21.539Z,4.57
2023-05-09T10:29:54.746Z,6.63
2023-05-09T10:32:27.452Z,7.40
2023-05-09T10:35:01.856Z,5.88
2023-05-09T10:37:29.856Z,15.20
2023-05-09T10:39:57.930Z,5.90
2023-05-09T10:42:25.077Z,8.55
2023-05-09T10:44:52.504Z,8.90
2023-05-09T10:47:19.696Z,8.07
2023-05-09T10:49:49.383Z,8.13
2023-05-09T10:52:15.900Z,7.07
2023-05-09T10:54:42.438Z,5.13
2023-05-09T10:57:10.257Z,6.88
2023-05-09T10:59:38.460Z,8.52
2023-05-09T11:02:06.046Z,10.48
2023-05-09T11:04:33.055Z,21.30
2023-05-09T11:07:02.250Z,12.45
2023-05-09T11:09:32.088Z,13.13
2023-05-09T11:12:07.823Z,13.00
2023-05-09T11:14:40.477Z,7.03
2023-05-09T11:17:09.220Z,7.70
2023-05-09T11:19:49.628Z,2.65
2023-05-09T11:22:21.848Z,6.03
2023-05-09T11:24:51.381Z,9.02
2023-05-09T11:27:21.223Z,5.10
2023-05-09T11:29:51.392Z,8.25
2023-05-09T11:32:20.091Z,9.50
2023-05-09T11:34:48.058Z,5.82
2023-05-09T11:37:19.281Z,10.90
2023-05-09T11:39:58.051Z,5.00
2023-05-09T11:42:27.871Z,8.40
2023-05-09T11:44:56.597Z,6.63
2023-05-09T11:47:24.377Z,4.25
2023-05-09T11:49:52.392Z,4.60
2023-05-09T11:52:20.946Z,2.03
2023-05-09T11:54:48.903Z,3.65
2023-05-09T11:57:16.205Z,2.58
2023-05-09T11:59:44.640Z,2.67
2023-05-09T12:02:13.181Z,2.90
2023-05-09T12:04:41.206Z,1.30
2023-05-09T12:07:12.558Z,2.50
2023-05-09T12:09:41.917Z,1.98
2023-05-09T12:12:10.650Z,5.22
2023-05-09T12:14:38.827Z,2.85
2023-05-09T12:17:07.100Z,3.08
2023-05-09T12:19:34.340Z,1.20
2023-05-09T12:22:03.249Z,4.15
2023-05-09T12:24:30.765Z,2.38
2023-05-09T12:27:00.589Z,2.70
2023-05-09T12:29:28.503Z,6.40
2023-05-09T12:31:55.802Z,3.40
2023-05-09T12:34:22.766Z,3.50
2023-05-09T12:36:50.144Z,3.08
2023-05-09T12:39:17.247Z,4.85
2023-05-09T12:41:57.505Z,4.45
2023-05-09T12:44:30.619Z,2.95
2023-05-09T12:47:00.883Z,8.85
2023-05-09T12:49:29.770Z,4.50
2023-05-09T12:51:59.840Z,3.83
2023-05-09T12:54:29.746Z,2.95
2023-05-09T12:56:58.863Z,1.00
2023-05-09T12:59:28.258Z,2.08
2023-05-09T13:02:00.296Z,2.22
2023-05-09T13:04:28.682Z,2.65
2023-05-09T13:06:57.461Z,1.25
2023-05-09T13:09:25.528Z,1.75
2023-05-09T13:11:52.583Z,5.13
2023-05-09T13:14:20.870Z,7.68
2023-05-09T13:16:47.840Z,10.65
2023-05-09T13:19:15.911Z,13.93
2023-05-09T13:21:42.549Z,12.90
2023-05-09T13:24:09.230Z,10.15
2023-05-09T13:26:37.134Z,6.63
2023-05-09T13:29:03.891Z,14.30
2023-05-09T13:31:31.855Z,14.25
2023-05-09T13:33:58.549Z,15.65
2023-05-09T13:36:26.479Z,6.93
2023-05-09T13:38:52.973Z,8.38
2023-05-09T13:41:19.517Z,12.77
2023-05-09T13:43:46.288Z,7.07
2023-05-09T13:46:12.861Z,13.43
2023-05-09T13:48:39.534Z,15.85
2023-05-09T13:51:06.154Z,16.23
2023-05-09T13:53:34.061Z,15.65
2023-05-09T13:56:00.618Z,19.67
2023-05-09T13:58:27.152Z,13.77
2023-05-09T14:00:53.641Z,11.68
2023-05-09T14:03:20.250Z,7.22
2023-05-09T14:05:47.078Z,11.80
2023-05-09T14:08:15.043Z,9.52
2023-05-09T14:10:44.701Z,11.93
2023-05-09T14:13:11.448Z,8.57
2023-05-09T14:15:38.791Z,8.82
2023-05-09T14:18:05.371Z,12.05
2023-05-09T14:20:33.912Z,9.55
2023-05-09T14:23:00.484Z,9.15
2023-05-09T14:25:27.158Z,13.77
2023-05-09T14:27:54.934Z,11.73
2023-05-09T14:30:21.619Z,11.15
2023-05-09T14:32:48.232Z,7.05
2023-05-09T14:35:14.894Z,6.65
2023-05-09T14:37:41.480Z,7.97
2023-05-09T14:40:09.018Z,3.95
2023-05-09T14:42:35.589Z,4.85
2023-05-09T14:45:03.888Z,3.08
2023-05-09T14:47:30.570Z,8.80
2023-05-09T14:49:57.090Z,6.85
2023-05-09T14:52:23.618Z,9.93
2023-05-09T14:54:50.066Z,7.93
2023-05-09T14:57:16.521Z,5.88
2023-05-09T14:59:42.987Z,7.10
2023-05-09T15:02:10.777Z,8.80
2023-05-09T15:04:37.252Z,4.75
2023-05-09T15:07:03.760Z,6.88
2023-05-09T15:09:30.379Z,6.82
2023-05-09T15:11:56.884Z,14.40
2023-05-09T15:14:23.369Z,4.20
2023-05-09T15:16:49.849Z,4.82
2023-05-09T15:19:17.641Z,9.90
2023-05-09T15:21:44.115Z,4.82
2023-05-09T15:24:10.650Z,4.72
2023-05-09T15:26:37.078Z,5.32
2023-05-09T15:29:03.678Z,3.38
2023-05-09T15:31:33.378Z,3.97
2023-05-09T15:34:01.234Z,4.75
2023-05-09T15:36:31.028Z,6.07
2023-05-09T15:38:58.883Z,5.55
2023-05-09T15:41:26.966Z,4.43
2023-05-09T15:43:54.310Z,2.42
2023-05-09T15:46:21.520Z,4.15
2023-05-09T15:48:49.614Z,3.28
2023-05-09T15:51:19.777Z,2.65
2023-05-09T15:53:55.686Z,2.83
2023-05-09T15:56:29.824Z,1.50
2023-05-09T15:59:11.516Z,3.22
2023-05-09T16:01:49.778Z,4.10
2023-05-09T16:04:18.434Z,5.35
2023-05-09T16:06:51.828Z,1.65
2023-05-09T16:09:29.332Z,2.72
2023-05-09T16:12:02.934Z,1.00
2023-05-09T16:14:30.421Z,3.58
2023-05-09T16:16:58.433Z,1.63
2023-05-09T16:19:25.779Z,2.92
2023-05-09T16:21:53.576Z,1.33
2023-05-09T16:24:22.669Z,2.05
2023-05-09T16:26:50.713Z,2.47
2023-05-09T16:29:18.173Z,1.17
2023-05-09T16:31:46.291Z,1.42
2023-05-09T16:34:13.909Z,1.73
2023-05-09T16:36:41.988Z,1.58
2023-05-09T16:39:12.305Z,2.13
2023-05-09T16:41:41.837Z,1.95
2023-05-09T16:44:14.277Z,1.75
2023-05-09T16:46:49.208Z,1.45
2023-05-09T16:49:17.494Z,1.02
2023-05-09T16:51:49.191Z,1.75
2023-05-09T16:54:20.814Z,2.35
2023-05-09T16:56:53.577Z,1.92
2023-05-09T16:59:29.664Z,2.80
2023-05-09T17:01:57.500Z,1.42
2023-05-09T17:04:37.754Z,3.28
2023-05-09T17:07:07.854Z,2.05
2023-05-09T17:09:40.664Z,3.08
2023-05-09T17:12:18.091Z,2.88
2023-05-09T17:14:54.321Z,2.33
2023-05-09T17:17:26.093Z,2.05
2023-05-09T17:19:53.324Z,2.75
2023-05-09T17:22:20.779Z,2.30
2023-05-09T17:24:48.384Z,3.03
2023-05-09T17:27:17.760Z,5.28
2023-05-09T17:29:45.419Z,4.03
2023-05-09T17:32:12.880Z,2.40
2023-05-09T17:34:40.338Z,2.78
2023-05-09T17:37:10.954Z,3.55
2023-05-09T17:39:38.442Z,1.80
2023-05-09T17:42:06.275Z,2.78
2023-05-09T17:44:40.420Z,4.93
2023-05-09T17:47:09.686Z,3.38
2023-05-09T17:49:39.414Z,2.75
2023-05-09T17:52:13.018Z,2.53
2023-05-09T17:54:46.616Z,1.73
2023-05-09T17:57:19.994Z,3.00
2023-05-09T17:59:58.712Z,3.13
2023-05-09T18:02:37.370Z,3.17
2023-05-09T18:05:04.442Z,3.00
2023-05-09T18:07:31.329Z,3.70
2023-05-09T18:09:57.778Z,2.50
2023-05-09T18:12:25.180Z,4.22
2023-05-09T18:14:52.883Z,3.17
2023-05-09T18:17:19.437Z,1.45
2023-05-09T18:19:45.917Z,4.55
2023-05-09T18:22:12.573Z,4.60
2023-05-09T18:24:39.051Z,4.43
2023-05-09T18:27:05.651Z,3.67
2023-05-09T18:29:32.244Z,3.33
2023-05-09T18:32:00.048Z,2.83
2023-05-09T18:34:26.558Z,3.05
2023-05-09T18:36:53.000Z,3.90
2023-05-09T18:39:19.549Z,3.38
2023-05-09T18:41:46.013Z,3.17
2023-05-09T18:44:12.466Z,3.53
2023-05-09T18:46:39.017Z,4.45
2023-05-09T18:49:07.031Z,3.42
2023-05-09T18:51:33.507Z,3.30
2023-05-09T18:53:59.948Z,4.97
2023-05-09T18:56:26.453Z,3.78
2023-05-09T18:58:52.930Z,3.92
2023-05-09T19:01:19.607Z,4.22
2023-05-09T19:03:46.162Z,4.20
2023-05-09T19:06:14.578Z,2.75
2023-05-09T19:08:42.161Z,3.50
2023-05-09T19:11:08.751Z,3.95
2023-05-09T19:13:35.435Z,4.78
2023-05-09T19:16:02.016Z,3.35
2023-05-09T19:18:28.460Z,1.83
2023-05-09T19:20:55.069Z,3.60
2023-05-09T19:23:22.975Z,4.70
2023-05-09T19:25:49.464Z,2.85
2023-05-09T19:28:15.960Z,2.45
2023-05-09T19:30:42.600Z,4.68
2023-05-09T19:33:09.266Z,3.63
2023-05-09T19:35:35.913Z,3.90
2023-05-09T19:38:02.415Z,3.75
2023-05-09T19:40:30.334Z,1.83
2023-05-09T19:42:56.989Z,2.55
2023-05-09T19:45:23.674Z,2.30
2023-05-09T19:47:50.200Z,3.83
2023-05-09T19:50:17.238Z,2.63
2023-05-09T19:52:44.190Z,1.90
2023-05-09T19:55:10.728Z,3.00
2023-05-09T19:57:38.538Z,4.78
2023-05-09T20:00:06.001Z,4.13
2023-05-09T20:02:32.916Z,1.98
2023-05-09T20:04:59.695Z,2.83
2023-05-09T20:07:26.217Z,1.83
2023-05-09T20:09:52.757Z,1.98
2023-05-09T20:12:19.301Z,2.03
2023-05-09T20:14:47.140Z,3.38
2023-05-09T20:17:13.744Z,3.67
2023-05-09T20:19:40.289Z,2.38
2023-05-09T20:22:06.909Z,2.47
2023-05-09T20:24:33.680Z,1.98
2023-05-09T20:27:00.170Z,1.63
2023-05-09T20:29:26.612Z,1.95
2023-05-09T20:31:54.493Z,2.78
2023-05-09T20:34:20.953Z,2.80
2023-05-09T20:36:48.931Z,3.33
2023-05-09T20:39:15.377Z,3.30
2023-05-09T20:41:41.815Z,1.80
2023-05-09T20:44:08.288Z,1.55
2023-05-09T20:46:34.724Z,2.38
2023-05-09T20:49:02.536Z,4.18
2023-05-09T20:51:29.079Z,2.20
2023-05-09T20:53:55.575Z,3.00
2023-05-09T20:56:22.132Z,2.00
2023-05-09T20:58:48.640Z,3.03
2023-05-09T21:01:15.128Z,1.77
2023-05-09T21:03:41.765Z,3.47
2023-05-09T21:06:09.557Z,1.63
2023-05-09T21:08:36.097Z,3.90
2023-05-09T21:11:02.544Z,4.38
2023-05-09T21:13:29.129Z,4.05
2023-05-09T21:15:55.790Z,2.47
2023-05-09T21:18:22.264Z,2.83
2023-05-09T21:20:48.707Z,2.63
2023-05-09T21:23:16.697Z,2.40
2023-05-09T21:25:44.414Z,3.90
2023-05-09T21:28:11.238Z,2.60
2023-05-09T21:30:37.745Z,2.25
2023-05-09T21:33:04.386Z,2.70
2023-05-09T21:35:30.930Z,1.85
2023-05-09T21:37:57.398Z,1.73
2023-05-09T21:40:25.280Z,3.15
2023-05-09T21:42:51.729Z,2.55
2023-05-09T21:45:18.396Z,2.17
2023-05-09T21:47:44.931Z,2.38
2023-05-09T21:50:11.415Z,2.40
2023-05-09T21:52:37.918Z,2.33
2023-05-09T21:55:04.750Z,2.00
2023-05-09T21:57:32.512Z,2.88
2023-05-09T21:59:59.060Z,1.83
2023-05-09T22:02:25.571Z,1.90
2023-05-09T22:04:52.087Z,2.55
2023-05-09T22:07:18.536Z,2.38
2023-05-09T22:09:44.995Z,2.17
2023-05-09T22:12:11.550Z,2.13
2023-05-09T22:14:45.364Z,1.17
2023-05-09T22:17:22.062Z,2.47
2023-05-09T22:19:48.582Z,1.52
2023-05-09T22:22:15.041Z,1.45
2023-05-09T22:24:41.651Z,2.40
2023-05-09T22:27:08.215Z,2.35
2023-05-09T22:29:34.838Z,2.95
2023-05-09T22:32:03.156Z,2.13
2023-05-09T22:34:29.982Z,1.73
2023-05-09T22:36:56.646Z,1.60
2023-05-09T22:39:23.288Z,2.88
2023-05-09T22:41:49.972Z,1.38
2023-05-09T22:44:16.591Z,1.58
2023-05-09T22:46:43.003Z,2.58
2023-05-09T22:49:10.789Z,2.13
2023-05-09T22:51:37.240Z,2.75
2023-05-09T22:54:03.871Z,3.05
2023-05-09T22:56:30.365Z,1.13
2023-05-09T22:58:56.820Z,2.60
2023-05-09T23:01:23.334Z,2.22
2023-05-09T23:03:49.976Z,2.08
2023-05-09T23:06:17.772Z,2.20
2023-05-09T23:08:44.210Z,1.42
2023-05-09T23:11:10.668Z,3.28
2023-05-09T23:13:37.127Z,1.90
2023-05-09T23:16:03.794Z,2.33
2023-05-09T23:18:30.278Z,2.28
2023-05-09T23:20:56.770Z,2.55
2023-05-09T23:23:24.518Z,4.00
2023-05-09T23:25:51.005Z,2.80
2023-05-09T23:28:17.497Z,1.70
2023-05-09T23:30:43.965Z,1.98
2023-05-09T23:33:10.398Z,1.88
2023-05-09T23:35:36.927Z,3.05
2023-05-09T23:38:03.397Z,2.85
2023-05-09T23:40:31.197Z,1.98
2023-05-09T23:42:57.674Z,2.03
2023-05-09T23:45:24.273Z,2.28
2023-05-09T23:47:50.932Z,1.13
2023-05-09T23:50:17.815Z,1.48
2023-05-09T23:52:44.519Z,2.10
2023-05-09T23:55:11.023Z,1.58
2023-05-09T23:57:38.784Z,1.67
